Hav Nordic — OZ2119 — position and weather

sailwx.info

Track history (hours):
 
Tides and Currents Weather Stations Pressure Air Temp Water Temp Dewpoint Dewpoint Depression Visibility Wind Speed Wind Dir Waves Ship Positions

Hav Nordic

Last reported at 2017-Aug-24 03:00 UTC. Time now 2017-Aug-24 03:04 UTC.
Position N 59°20' E 005°18'.

Length 75 m; draft 5.5 m.

Type: Cargo ship. MMSI: 231812000.

Date/timePositionNaut miles runAvg speedWind from/ knotsBaromVisibWave heightAir tempDewpointWater temp
2017-Aug-24 03:00N 59°20' E 005°18'0 0.0
2017-Aug-24 02:30N 59°20' E 005°18'0 0.0
2017-Aug-24 01:57N 59°20' E 005°18'0 0.0
2017-Aug-24 01:30N 59°20' E 005°18'0 0.0
2017-Aug-24 01:00N 59°20' E 005°18'0 0.0
2017-Aug-24 00:30N 59°20' E 005°18'0 0.0
2017-Aug-24 00:00N 59°20' E 005°18'0 0.0
2017-Aug-23 23:30N 59°20' E 005°18'0 0.0
2017-Aug-23 23:00N 59°20' E 005°18'0 0.0
2017-Aug-23 22:30N 59°20' E 005°18'0 0.0
2017-Aug-23 22:00N 59°20' E 005°18'0 0.0
2017-Aug-23 21:30N 59°20' E 005°18'0 0.0
2017-Aug-23 21:00N 59°20' E 005°18'0 0.0
2017-Aug-23 20:30N 59°20' E 005°18'0 0.0
2017-Aug-23 20:00N 59°20' E 005°18'0 0.0
2017-Aug-23 19:30N 59°20' E 005°18'0 0.0
2017-Aug-23 19:00N 59°20' E 005°18'0 0.0
2017-Aug-23 18:30N 59°20' E 005°18'0 0.0
2017-Aug-23 18:00N 59°20' E 005°18'0 0.0
2017-Aug-23 17:30N 59°20' E 005°18'0 0.0
2017-Aug-23 17:00N 59°20' E 005°18'0 0.0
2017-Aug-23 16:30N 59°20' E 005°18'0 0.0
2017-Aug-23 16:00N 59°20' E 005°18'0 0.9
2017-Aug-23 15:30N 59°20' E 005°19'5 9.7
2017-Aug-23 15:00N 59°15' E 005°21'9 8.6
2017-Aug-23 14:00N 59°07' E 005°28'4 8.3
2017-Aug-23 13:30N 59°04' E 005°33'5 9.2
2017-Aug-23 13:00N 59°01' E 005°40'4 7.9
2017-Aug-23 12:30N 59°01' E 005°48'3 5.8
2017-Aug-23 12:00N 58°58' E 005°45'0 0.1
2017-Aug-23 11:30N 58°58' E 005°45'0 0.0
2017-Aug-23 11:00N 58°58' E 005°45'0 0.0
2017-Aug-23 10:30N 58°58' E 005°45'0 0.0
2017-Aug-23 10:00N 58°58' E 005°45'0 0.0
2017-Aug-23 09:30N 58°58' E 005°45'0 0.0
2017-Aug-23 09:00N 58°58' E 005°45'0 0.0
2017-Aug-23 08:30N 58°58' E 005°45'0 0.0
2017-Aug-23 08:00N 58°58' E 005°45'0 0.0
2017-Aug-23 07:30N 58°58' E 005°45'0 0.0
2017-Aug-23 07:00N 58°58' E 005°45'0 0.0
2017-Aug-23 06:30N 58°58' E 005°45'0 0.0
2017-Aug-23 06:00N 58°58' E 005°45'0 0.0
2017-Aug-23 05:30N 58°58' E 005°45'0 0.0
2017-Aug-23 05:00N 58°58' E 005°45'0 0.0
2017-Aug-23 04:30N 58°58' E 005°45'0 0.0
2017-Aug-23 04:00N 58°58' E 005°45'0 0.0
2017-Aug-23 03:30N 58°58' E 005°45'0 0.0
2017-Aug-23 03:00N 58°58' E 005°45'0 0.0
2017-Aug-23 02:30N 58°58' E 005°45'0 0.0
2017-Aug-23 02:00N 58°58' E 005°45'0 0.0
2017-Aug-23 01:30N 58°58' E 005°45'0 0.0
2017-Aug-23 01:00N 58°58' E 005°45'0 0.0
2017-Aug-23 00:30N 58°58' E 005°45'0 0.0
2017-Aug-23 00:00N 58°58' E 005°45'0 0.0
2017-Aug-22 23:30N 58°58' E 005°45'0 0.0
2017-Aug-22 22:59N 58°58' E 005°45'0 0.0
2017-Aug-22 22:29N 58°58' E 005°45'0 0.0
2017-Aug-22 21:53N 58°58' E 005°45'0 0.0
2017-Aug-22 21:29N 58°58' E 005°45'0 0.0
2017-Aug-22 20:59N 58°58' E 005°45'0 0.0
2017-Aug-22 20:29N 58°58' E 005°45'0 0.0
2017-Aug-22 19:59N 58°58' E 005°45'0 0.0
2017-Aug-22 19:29N 58°58' E 005°45'0 0.0
2017-Aug-22 18:59N 58°58' E 005°45'0 0.0
2017-Aug-22 18:26N 58°58' E 005°45'0 0.0
2017-Aug-22 17:59N 58°58' E 005°45'0 0.0
2017-Aug-22 17:29N 58°58' E 005°45'0 0.0
2017-Aug-22 16:59N 58°58' E 005°45'0 0.0
2017-Aug-22 16:29N 58°58' E 005°45'0 0.0
2017-Aug-22 15:59N 58°58' E 005°45'0 0.0
2017-Aug-22 15:29N 58°58' E 005°45'0 0.0
2017-Aug-22 14:59N 58°58' E 005°45'0 0.0
2017-Aug-22 14:29N 58°58' E 005°45'0 0.0
2017-Aug-22 13:59N 58°58' E 005°45'0 0.0
2017-Aug-22 13:29N 58°58' E 005°45'0 0.0
2017-Aug-22 12:59N 58°58' E 005°45'0 0.0
2017-Aug-22 12:29N 58°58' E 005°45'0 0.0
2017-Aug-22 11:59N 58°58' E 005°45'0 0.0
2017-Aug-22 11:29N 58°58' E 005°45'0 0.0
2017-Aug-22 10:59N 58°58' E 005°45'0 0.0
2017-Aug-22 10:29N 58°58' E 005°45'0 0.0
2017-Aug-22 09:59N 58°58' E 005°45'0 0.0
2017-Aug-22 09:29N 58°58' E 005°45'0 0.0
2017-Aug-22 08:59N 58°58' E 005°45'0 0.0
2017-Aug-22 08:29N 58°58' E 005°45'0 0.0
2017-Aug-22 07:59N 58°58' E 005°45'0 0.0
2017-Aug-22 07:29N 58°58' E 005°45'0 0.0
2017-Aug-22 06:59N 58°58' E 005°45'0 0.0
2017-Aug-22 06:29N 58°58' E 005°45'0 0.0
2017-Aug-22 05:59N 58°58' E 005°45'0 0.0
2017-Aug-22 05:29N 58°58' E 005°45'0 0.0
2017-Aug-22 04:59N 58°58' E 005°45'0 0.0
2017-Aug-22 04:29N 58°58' E 005°45'0 0.0
2017-Aug-22 03:59N 58°58' E 005°45'0 0.0
2017-Aug-22 03:29N 58°58' E 005°45'0 0.0
2017-Aug-22 02:59N 58°58' E 005°45'0 0.0
2017-Aug-22 02:29N 58°58' E 005°45'0 0.0
2017-Aug-22 01:59N 58°58' E 005°45'0 0.0
2017-Aug-22 01:29N 58°58' E 005°45'0 0.0
2017-Aug-22 00:59N 58°58' E 005°45'0 0.0
2017-Aug-22 00:29N 58°58' E 005°45'0 0.0
2017-Aug-21 23:59N 58°58' E 005°45'0 0.0
2017-Aug-21 23:29N 58°58' E 005°45'0 0.0
2017-Aug-21 22:59N 58°58' E 005°45'0 0.0
2017-Aug-21 22:29N 58°58' E 005°45'0 0.0
2017-Aug-21 21:59N 58°58' E 005°45'0 0.0
2017-Aug-21 21:29N 58°58' E 005°45'0 0.0
2017-Aug-21 20:59N 58°58' E 005°45'0 0.0
2017-Aug-21 20:29N 58°58' E 005°45'0 0.0
2017-Aug-21 19:59N 58°58' E 005°45'0 0.0
2017-Aug-21 19:29N 58°58' E 005°45'0 0.0
2017-Aug-21 18:59N 58°58' E 005°45'0 0.0
2017-Aug-21 18:29N 58°58' E 005°45'0 0.0
2017-Aug-21 17:59N 58°58' E 005°45'0 0.0
2017-Aug-21 17:29N 58°58' E 005°45'0 0.0
2017-Aug-21 16:59N 58°58' E 005°45'0 0.0
2017-Aug-21 16:29N 58°58' E 005°45'0 0.0
2017-Aug-21 15:59N 58°58' E 005°45'0 0.0
2017-Aug-21 15:29N 58°58' E 005°45'0 0.0
2017-Aug-21 14:59N 58°58' E 005°45'0 0.0
2017-Aug-21 14:29N 58°58' E 005°45'0 0.0
2017-Aug-21 13:59N 58°58' E 005°45'0 0.0
2017-Aug-21 13:29N 58°58' E 005°45'0 0.0
2017-Aug-21 12:59N 58°58' E 005°45'0 0.0
2017-Aug-21 12:29N 58°58' E 005°45'0 0.8
2017-Aug-21 12:00N 58°58' E 005°46'4 7.0
2017-Aug-21 11:30N 59°02' E 005°46'4 8.6
2017-Aug-21 11:00N 59°02' E 005°37'5 9.5
2017-Aug-21 10:30N 59°05' E 005°31'5 9.2
2017-Aug-21 10:00N 59°07' E 005°23'5 9.4
2017-Aug-21 09:30N 59°07' E 005°14'5 9.4
2017-Aug-21 09:00N 59°07' E 005°05'5 9.1
2017-Aug-21 08:30N 59°10' E 004°57'5 9.6
2017-Aug-21 08:00N 59°13' E 004°50'40 8.6
2017-Aug-21 03:19N 59°53' E 004°35'3 8.9
2017-Aug-21 03:00N 59°55' E 004°35'4 8.5
2017-Aug-21 02:30N 59°60' E 004°34'4 8.2
2017-Aug-21 01:59N 60°04' E 004°33'4 8.8
2017-Aug-21 01:30N 60°08' E 004°32'5 9.2
2017-Aug-21 01:00N 60°13' E 004°31'5 9.5
2017-Aug-21 00:30N 60°17' E 004°29'5 9.5
2017-Aug-21 00:00N 60°22' E 004°28'4 8.7
2017-Aug-20 23:30N 60°26' E 004°28'4 8.4
2017-Aug-20 23:00N 60°31' E 004°27'4 8.3
2017-Aug-20 22:30N 60°35' E 004°26'4 8.6
2017-Aug-20 22:00N 60°39' E 004°24'4 8.5
2017-Aug-20 21:30N 60°43' E 004°24'4 8.0
2017-Aug-20 21:00N 60°47' E 004°23'4 7.9
2017-Aug-20 20:30N 60°51' E 004°22'4 8.1
2017-Aug-20 19:59N 60°55' E 004°21'4 7.6
2017-Aug-20 19:30N 60°59' E 004°20'4 8.1
2017-Aug-20 19:00N 61°03' E 004°20'4 8.1
2017-Aug-20 18:30N 61°07' E 004°19'4 8.1
2017-Aug-20 18:00N 61°11' E 004°18'29 8.2
2017-Aug-20 14:27N 61°40' E 004°22'4 8.4
2017-Aug-20 14:00N 61°43' E 004°23'4 8.5
2017-Aug-20 13:30N 61°48' E 004°25'5 9.2
2017-Aug-20 13:00N 61°52' E 004°26'5 9.3
2017-Aug-20 12:30N 61°57' E 004°28'5 9.6
2017-Aug-20 12:00N 62°02' E 004°30'5 9.5
2017-Aug-20 11:30N 62°06' E 004°33'5 9.4
2017-Aug-20 11:00N 62°10' E 004°38'5 9.5
2017-Aug-20 10:30N 62°15' E 004°42'5 9.6
2017-Aug-20 10:00N 62°19' E 004°47'5 9.6
2017-Aug-20 09:30N 62°23' E 004°52'5 9.3
2017-Aug-20 08:59N 62°27' E 004°56'384 9.4
2017-Aug-18 16:07N 68°04' E 012°16'1 9.1
2017-Aug-18 16:00N 68°05' E 012°18'4 8.8
2017-Aug-18 15:30N 68°08' E 012°26'4 9.0
2017-Aug-18 15:00N 68°12' E 012°34'5 9.2
2017-Aug-18 14:30N 68°15' E 012°43'9 9.3
2017-Aug-18 13:30N 68°22' E 012°59'5 9.0
2017-Aug-18 13:00N 68°25' E 013°08'5 9.0
2017-Aug-18 12:29N 68°29' E 013°16'5 9.1
2017-Aug-18 11:59N 68°32' E 013°25'4 9.1
2017-Aug-18 11:30N 68°35' E 013°33'5 9.2
2017-Aug-18 11:00N 68°38' E 013°42'5 9.1
2017-Aug-18 10:30N 68°42' E 013°51'4 9.0
2017-Aug-18 10:00N 68°44' E 014°01'4 8.8
2017-Aug-18 09:30N 68°47' E 014°11'4 8.2
2017-Aug-18 09:00N 68°49' E 014°20'4 8.3
2017-Aug-18 08:30N 68°52' E 014°30'4 8.6
2017-Aug-18 08:00N 68°54' E 014°39'5 9.4
2017-Aug-18 07:30N 68°58' E 014°48'4 7.1
2017-Aug-18 07:00N 68°58' E 014°58'4 8.2
2017-Aug-18 06:30N 68°55' E 015°03'0 0.1
2017-Aug-18 05:59N 68°55' E 015°03'0 0.0
2017-Aug-18 05:29N 68°55' E 015°03'0 0.4
2017-Aug-18 05:00N 68°55' E 015°03'0 0.4
2017-Aug-18 04:29N 68°55' E 015°04'0 0.0
2017-Aug-18 03:59N 68°55' E 015°04'0 0.0
2017-Aug-18 03:29N 68°55' E 015°04'0 0.0
2017-Aug-18 02:59N 68°55' E 015°04'0 0.0
2017-Aug-18 02:29N 68°55' E 015°04'0 0.0
2017-Aug-18 01:59N 68°55' E 015°04'0 0.0
2017-Aug-18 01:29N 68°55' E 015°04'0 0.0
2017-Aug-18 00:59N 68°55' E 015°04'0 0.0
2017-Aug-18 00:29N 68°55' E 015°04'0 0.0
2017-Aug-17 23:59N 68°55' E 015°04'0 0.0
2017-Aug-17 23:29N 68°55' E 015°04'0 0.0
2017-Aug-17 22:59N 68°55' E 015°04'0 0.0
2017-Aug-17 22:29N 68°55' E 015°04'0 0.0
2017-Aug-17 21:59N 68°55' E 015°04'0 0.0
2017-Aug-17 21:29N 68°55' E 015°04'0 0.0
2017-Aug-17 20:59N 68°55' E 015°04'0 0.0
2017-Aug-17 20:29N 68°55' E 015°04'0 0.0
2017-Aug-17 19:59N 68°55' E 015°04'0 0.0
2017-Aug-17 18:38N 68°55' E 015°04'0 0.0
2017-Aug-17 18:29N 68°55' E 015°04'0 0.0
2017-Aug-17 17:59N 68°55' E 015°04'0 0.0
2017-Aug-17 17:30N 68°55' E 015°04'2 3.3
2017-Aug-17 17:00N 68°55' E 014°60'510.0
2017-Aug-17 16:30N 69°00' E 014°59'4 8.6
2017-Aug-17 16:00N 69°02' E 015°10'5 9.4
2017-Aug-17 15:30N 69°00' E 015°23'510.2
2017-Aug-17 15:00N 68°55' E 015°23'510.2
2017-Aug-17 14:30N 68°50' E 015°26'510.4
2017-Aug-17 14:00N 68°45' E 015°25'5 9.6
2017-Aug-17 13:30N 68°40' E 015°26'5 9.5
2017-Aug-17 13:01N 68°37' E 015°17'5 9.8
2017-Aug-17 12:30N 68°32' E 015°10'4 8.9
2017-Aug-17 12:01N 68°28' E 015°12'5 9.1
2017-Aug-17 11:30N 68°24' E 015°06'5 9.9
2017-Aug-17 11:00N 68°20' E 014°60'5 9.7
2017-Aug-17 10:30N 68°15' E 014°57'3 6.7
2017-Aug-17 10:00N 68°13' E 015°03'5 9.4
2017-Aug-17 09:30N 68°13' E 015°16'4 9.2
2017-Aug-17 09:00N 68°13' E 015°28'2 3.0
2017-Aug-17 08:30N 68°12' E 015°31'510.5
2017-Aug-17 08:00N 68°09' E 015°20'510.9
2017-Aug-17 07:30N 68°05' E 015°09'510.8
2017-Aug-17 07:00N 68°01' E 014°58'511.1
2017-Aug-17 06:30N 67°58' E 014°47'510.9
2017-Aug-17 06:00N 67°54' E 014°36'510.7
2017-Aug-17 05:30N 67°50' E 014°27'5 9.9
2017-Aug-17 05:01N 67°46' E 014°21'510.5
2017-Aug-17 04:30N 67°40' E 014°22'510.5
2017-Aug-17 04:01N 67°35' E 014°22'510.3
2017-Aug-17 03:31N 67°30' E 014°23'5 9.2
2017-Aug-17 03:01N 67°26' E 014°26'510.0
2017-Aug-17 02:31N 67°21' E 014°24'4 7.0
2017-Aug-17 02:01N 67°17' E 014°23'0 0.1
2017-Aug-17 01:30N 67°17' E 014°23'0 0.0
2017-Aug-17 01:00N 67°17' E 014°23'0 0.0
2017-Aug-17 00:30N 67°17' E 014°23'0 0.0
2017-Aug-17 00:00N 67°17' E 014°23'0 0.0
2017-Aug-16 23:30N 67°17' E 014°23'0 0.0
2017-Aug-16 23:00N 67°17' E 014°23'0 0.0
2017-Aug-16 22:30N 67°17' E 014°23'0 0.0
2017-Aug-16 22:00N 67°17' E 014°23'0 0.0
2017-Aug-16 21:30N 67°17' E 014°23'0 0.0
2017-Aug-16 21:00N 67°17' E 014°23'0 0.0
2017-Aug-16 20:29N 67°17' E 014°23'0 0.0
2017-Aug-16 19:59N 67°17' E 014°23'0 0.0
2017-Aug-16 19:29N 67°17' E 014°23'0 0.0
2017-Aug-16 18:59N 67°17' E 014°23'0 0.0
2017-Aug-16 18:29N 67°17' E 014°23'0 0.0
2017-Aug-16 17:59N 67°17' E 014°23'0 0.0
2017-Aug-16 17:29N 67°17' E 014°23'0 0.0
2017-Aug-16 16:59N 67°17' E 014°23'0 0.0
2017-Aug-16 16:29N 67°17' E 014°23'0 0.0
2017-Aug-16 15:59N 67°17' E 014°23'0 0.0
2017-Aug-16 15:29N 67°17' E 014°23'0 0.0
2017-Aug-16 14:59N 67°17' E 014°23'0 0.0
2017-Aug-16 14:29N 67°17' E 014°23'0 0.0
2017-Aug-16 13:59N 67°17' E 014°23'0 0.0
2017-Aug-16 13:29N 67°17' E 014°23'0 0.0
2017-Aug-16 12:59N 67°17' E 014°23'0 0.0
2017-Aug-16 12:29N 67°17' E 014°23'0 0.0
2017-Aug-16 11:59N 67°17' E 014°23'0 0.0
2017-Aug-16 11:29N 67°17' E 014°23'0 0.0
2017-Aug-16 10:59N 67°17' E 014°23'0 0.0
2017-Aug-16 10:29N 67°17' E 014°23'0 0.0
2017-Aug-16 09:59N 67°17' E 014°23'0 0.0
2017-Aug-16 09:29N 67°17' E 014°23'0 0.0
2017-Aug-16 08:59N 67°17' E 014°23'0 0.0
2017-Aug-16 08:29N 67°17' E 014°23'0 0.0
2017-Aug-16 07:59N 67°17' E 014°23'0 0.0
2017-Aug-16 07:30N 67°17' E 014°23'1 2.4
2017-Aug-16 07:00N 67°19' E 014°23'5 9.4
2017-Aug-16 06:30N 67°23' E 014°26'5 9.2
2017-Aug-16 06:00N 67°28' E 014°24'5 9.0
2017-Aug-16 05:30N 67°32' E 014°22'4 7.2
2017-Aug-16 05:00N 67°36' E 014°22'3 6.1
2017-Aug-16 04:30N 67°39' E 014°22'3 5.9
2017-Aug-16 04:00N 67°42' E 014°21'3 6.2
2017-Aug-16 03:30N 67°45' E 014°21'3 5.7
2017-Aug-16 03:00N 67°48' E 014°22'3 6.7
2017-Aug-16 02:30N 67°50' E 014°27'2 4.8
2017-Aug-16 02:00N 67°52' E 014°31'2 4.1
2017-Aug-16 01:30N 67°54' E 014°35'2 3.8
2017-Aug-16 01:00N 67°55' E 014°39'2 3.6
2017-Aug-16 00:31N 67°56' E 014°42'2 3.5
2017-Aug-16 00:00N 67°58' E 014°46'2 3.5
2017-Aug-15 23:30N 67°59' E 014°49'2 3.4
2017-Aug-15 23:00N 68°00' E 014°52'2 3.6
2017-Aug-15 22:30N 68°01' E 014°56'2 3.8
2017-Aug-15 22:00N 68°02' E 014°60'2 3.8
2017-Aug-15 21:30N 68°03' E 015°04'2 3.8
2017-Aug-15 21:00N 68°05' E 015°08'2 3.4
2017-Aug-15 20:30N 68°06' E 015°11'3 6.7
2017-Aug-15 20:00N 68°08' E 015°18'5 9.9
2017-Aug-15 19:30N 68°11' E 015°28'2 4.1
2017-Aug-15 19:00N 68°13' E 015°24'510.3
2017-Aug-15 18:30N 68°12' E 015°10'5 9.7
2017-Aug-15 18:00N 68°13' E 014°57'510.0
2017-Aug-15 17:29N 68°18' E 014°58'5 9.3
2017-Aug-15 17:00N 68°22' E 015°03'4 8.1
2017-Aug-15 16:30N 68°26' E 015°08'4 8.6
2017-Aug-15 16:00N 68°30' E 015°11'5 9.4
2017-Aug-15 15:30N 68°34' E 015°11'510.0
2017-Aug-15 14:59N 68°38' E 015°22'5 9.7
2017-Aug-15 14:30N 68°43' E 015°26'5 9.9
2017-Aug-15 14:00N 68°48' E 015°26'5 9.8
2017-Aug-15 13:29N 68°52' E 015°25'510.0
2017-Aug-15 13:01N 68°57' E 015°23'4 8.8
2017-Aug-15 12:30N 69°01' E 015°17'5 9.9
2017-Aug-15 11:59N 69°02' E 015°02'4 9.0
2017-Aug-15 11:30N 68°57' E 014°59'3 6.4
2017-Aug-15 11:00N 68°55' E 015°04'0 0.0
2017-Aug-15 10:29N 68°55' E 015°04'0 0.0
2017-Aug-15 09:59N 68°55' E 015°04'0 0.0
2017-Aug-15 09:29N 68°55' E 015°04'0 0.0
2017-Aug-15 08:59N 68°55' E 015°04'0 0.0
2017-Aug-15 08:29N 68°55' E 015°04'0 0.0
2017-Aug-15 07:53N 68°55' E 015°04'0 0.0
2017-Aug-15 07:23N 68°55' E 015°04'0 0.0
2017-Aug-15 06:59N 68°55' E 015°04'0 0.0
2017-Aug-15 06:29N 68°55' E 015°04'0 0.0
2017-Aug-15 05:59N 68°55' E 015°04'0 0.0
2017-Aug-15 05:29N 68°55' E 015°04'0 0.0
2017-Aug-15 04:58N 68°55' E 015°04'0 0.0
2017-Aug-15 04:28N 68°55' E 015°04'0 0.0
2017-Aug-15 03:58N 68°55' E 015°04'0 0.0
2017-Aug-15 03:28N 68°55' E 015°04'0 0.0
2017-Aug-15 02:58N 68°55' E 015°04'0 0.0
2017-Aug-15 02:28N 68°55' E 015°04'0 0.0
2017-Aug-15 01:58N 68°55' E 015°04'0 0.0
2017-Aug-15 01:28N 68°55' E 015°04'0 0.0
2017-Aug-15 00:58N 68°55' E 015°04'0 0.0
2017-Aug-15 00:28N 68°55' E 015°04'0 0.0
2017-Aug-14 23:58N 68°55' E 015°04'0 0.0
2017-Aug-14 23:28N 68°55' E 015°04'0 0.0
2017-Aug-14 22:58N 68°55' E 015°04'0 0.0
2017-Aug-14 22:28N 68°55' E 015°04'0 0.0
2017-Aug-14 21:58N 68°55' E 015°04'0 0.0
2017-Aug-14 21:28N 68°55' E 015°04'0 0.0
2017-Aug-14 20:58N 68°55' E 015°04'0 0.0
2017-Aug-14 20:28N 68°55' E 015°04'0 0.0
2017-Aug-14 19:58N 68°55' E 015°04'0 0.0
2017-Aug-14 19:28N 68°55' E 015°04'0 0.0
2017-Aug-14 18:58N 68°55' E 015°04'0 0.0
2017-Aug-14 18:28N 68°55' E 015°04'0 0.0
2017-Aug-14 17:58N 68°55' E 015°04'0 0.0
2017-Aug-14 17:28N 68°55' E 015°04'0 0.0
2017-Aug-14 16:58N 68°55' E 015°04'0 0.0
2017-Aug-14 16:28N 68°55' E 015°04'0 0.0
2017-Aug-14 15:58N 68°55' E 015°04'0 0.0
2017-Aug-14 15:28N 68°55' E 015°04'0 0.0
2017-Aug-14 13:07N 68°55' E 015°04'0 0.0
2017-Aug-14 12:58N 68°55' E 015°04'0 0.0
2017-Aug-14 12:28N 68°55' E 015°04'0 0.0
2017-Aug-14 11:58N 68°55' E 015°04'0 0.0
2017-Aug-14 11:28N 68°55' E 015°04'0 0.0
2017-Aug-14 10:58N 68°55' E 015°04'0 0.0
2017-Aug-14 10:28N 68°55' E 015°04'0 0.0
2017-Aug-14 09:58N 68°55' E 015°04'0 0.0
2017-Aug-14 09:28N 68°55' E 015°04'0 0.0
2017-Aug-14 08:58N 68°55' E 015°04'0 0.0
2017-Aug-14 08:28N 68°55' E 015°04'0 0.0
2017-Aug-14 07:58N 68°55' E 015°04'0 0.0
2017-Aug-14 07:28N 68°55' E 015°04'0 0.0
2017-Aug-14 06:58N 68°55' E 015°04'0 0.0
2017-Aug-14 06:28N 68°55' E 015°04'0 0.0
2017-Aug-14 05:58N 68°55' E 015°04'0 0.0
2017-Aug-14 05:28N 68°55' E 015°04'0 0.0
2017-Aug-14 04:58N 68°55' E 015°04'0 0.0
2017-Aug-14 04:28N 68°55' E 015°04'0 0.0
2017-Aug-14 03:58N 68°55' E 015°04'0 0.0
2017-Aug-14 03:28N 68°55' E 015°04'  
Track history (hours):
 
Tides and Currents Weather Stations Pressure Air Temp Water Temp Dewpoint Dewpoint Depression Visibility Wind Speed Wind Dir Waves Ship Positions

Hav Nordic

Last reported at 2017-Aug-24 03:00 UTC. Time now 2017-Aug-24 03:04 UTC.
Position N 59°20' E 005°18'.

Length 75 m; draft 5.5 m.

Type: Cargo ship. MMSI: 231812000.

Date/timePositionNaut miles runAvg speedWind from/ knotsBaromVisibWave heightAir tempDewpointWater temp
2017-Aug-24 03:00N 59°20' E 005°18'0 0.0
2017-Aug-24 02:30N 59°20' E 005°18'0 0.0
2017-Aug-24 01:57N 59°20' E 005°18'0 0.0
2017-Aug-24 01:30N 59°20' E 005°18'0 0.0
2017-Aug-24 01:00N 59°20' E 005°18'0 0.0
2017-Aug-24 00:30N 59°20' E 005°18'0 0.0
2017-Aug-24 00:00N 59°20' E 005°18'0 0.0
2017-Aug-23 23:30N 59°20' E 005°18'0 0.0
2017-Aug-23 23:00N 59°20' E 005°18'0 0.0
2017-Aug-23 22:30N 59°20' E 005°18'0 0.0
2017-Aug-23 22:00N 59°20' E 005°18'0 0.0
2017-Aug-23 21:30N 59°20' E 005°18'0 0.0
2017-Aug-23 21:00N 59°20' E 005°18'0 0.0
2017-Aug-23 20:30N 59°20' E 005°18'0 0.0
2017-Aug-23 20:00N 59°20' E 005°18'0 0.0
2017-Aug-23 19:30N 59°20' E 005°18'0 0.0
2017-Aug-23 19:00N 59°20' E 005°18'0 0.0
2017-Aug-23 18:30N 59°20' E 005°18'0 0.0
2017-Aug-23 18:00N 59°20' E 005°18'0 0.0
2017-Aug-23 17:30N 59°20' E 005°18'0 0.0
2017-Aug-23 17:00N 59°20' E 005°18'0 0.0
2017-Aug-23 16:30N 59°20' E 005°18'0 0.0
2017-Aug-23 16:00N 59°20' E 005°18'0 0.9
2017-Aug-23 15:30N 59°20' E 005°19'5 9.7
2017-Aug-23 15:00N 59°15' E 005°21'9 8.6
2017-Aug-23 14:00N 59°07' E 005°28'4 8.3
2017-Aug-23 13:30N 59°04' E 005°33'5 9.2
2017-Aug-23 13:00N 59°01' E 005°40'4 7.9
2017-Aug-23 12:30N 59°01' E 005°48'3 5.8
2017-Aug-23 12:00N 58°58' E 005°45'0 0.1
2017-Aug-23 11:30N 58°58' E 005°45'0 0.0
2017-Aug-23 11:00N 58°58' E 005°45'0 0.0
2017-Aug-23 10:30N 58°58' E 005°45'0 0.0
2017-Aug-23 10:00N 58°58' E 005°45'0 0.0
2017-Aug-23 09:30N 58°58' E 005°45'0 0.0
2017-Aug-23 09:00N 58°58' E 005°45'0 0.0
2017-Aug-23 08:30N 58°58' E 005°45'0 0.0
2017-Aug-23 08:00N 58°58' E 005°45'0 0.0
2017-Aug-23 07:30N 58°58' E 005°45'0 0.0
2017-Aug-23 07:00N 58°58' E 005°45'0 0.0
2017-Aug-23 06:30N 58°58' E 005°45'0 0.0
2017-Aug-23 06:00N 58°58' E 005°45'0 0.0
2017-Aug-23 05:30N 58°58' E 005°45'0 0.0
2017-Aug-23 05:00N 58°58' E 005°45'0 0.0
2017-Aug-23 04:30N 58°58' E 005°45'0 0.0
2017-Aug-23 04:00N 58°58' E 005°45'0 0.0
2017-Aug-23 03:30N 58°58' E 005°45'0 0.0
2017-Aug-23 03:00N 58°58' E 005°45'0 0.0
2017-Aug-23 02:30N 58°58' E 005°45'0 0.0
2017-Aug-23 02:00N 58°58' E 005°45'0 0.0
2017-Aug-23 01:30N 58°58' E 005°45'0 0.0
2017-Aug-23 01:00N 58°58' E 005°45'0 0.0
2017-Aug-23 00:30N 58°58' E 005°45'0 0.0
2017-Aug-23 00:00N 58°58' E 005°45'0 0.0
2017-Aug-22 23:30N 58°58' E 005°45'0 0.0
2017-Aug-22 22:59N 58°58' E 005°45'0 0.0
2017-Aug-22 22:29N 58°58' E 005°45'0 0.0
2017-Aug-22 21:53N 58°58' E 005°45'0 0.0
2017-Aug-22 21:29N 58°58' E 005°45'0 0.0
2017-Aug-22 20:59N 58°58' E 005°45'0 0.0
2017-Aug-22 20:29N 58°58' E 005°45'0 0.0
2017-Aug-22 19:59N 58°58' E 005°45'0 0.0
2017-Aug-22 19:29N 58°58' E 005°45'0 0.0
2017-Aug-22 18:59N 58°58' E 005°45'0 0.0
2017-Aug-22 18:26N 58°58' E 005°45'0 0.0
2017-Aug-22 17:59N 58°58' E 005°45'0 0.0
2017-Aug-22 17:29N 58°58' E 005°45'0 0.0
2017-Aug-22 16:59N 58°58' E 005°45'0 0.0
2017-Aug-22 16:29N 58°58' E 005°45'0 0.0
2017-Aug-22 15:59N 58°58' E 005°45'0 0.0
2017-Aug-22 15:29N 58°58' E 005°45'0 0.0
2017-Aug-22 14:59N 58°58' E 005°45'0 0.0
2017-Aug-22 14:29N 58°58' E 005°45'0 0.0
2017-Aug-22 13:59N 58°58' E 005°45'0 0.0
2017-Aug-22 13:29N 58°58' E 005°45'0 0.0
2017-Aug-22 12:59N 58°58' E 005°45'0 0.0
2017-Aug-22 12:29N 58°58' E 005°45'0 0.0
2017-Aug-22 11:59N 58°58' E 005°45'0 0.0
2017-Aug-22 11:29N 58°58' E 005°45'0 0.0
2017-Aug-22 10:59N 58°58' E 005°45'0 0.0
2017-Aug-22 10:29N 58°58' E 005°45'0 0.0
2017-Aug-22 09:59N 58°58' E 005°45'0 0.0
2017-Aug-22 09:29N 58°58' E 005°45'0 0.0
2017-Aug-22 08:59N 58°58' E 005°45'0 0.0
2017-Aug-22 08:29N 58°58' E 005°45'0 0.0
2017-Aug-22 07:59N 58°58' E 005°45'0 0.0
2017-Aug-22 07:29N 58°58' E 005°45'0 0.0
2017-Aug-22 06:59N 58°58' E 005°45'0 0.0
2017-Aug-22 06:29N 58°58' E 005°45'0 0.0
2017-Aug-22 05:59N 58°58' E 005°45'0 0.0
2017-Aug-22 05:29N 58°58' E 005°45'0 0.0
2017-Aug-22 04:59N 58°58' E 005°45'0 0.0
2017-Aug-22 04:29N 58°58' E 005°45'0 0.0
2017-Aug-22 03:59N 58°58' E 005°45'0 0.0
2017-Aug-22 03:29N 58°58' E 005°45'0 0.0
2017-Aug-22 02:59N 58°58' E 005°45'0 0.0
2017-Aug-22 02:29N 58°58' E 005°45'0 0.0
2017-Aug-22 01:59N 58°58' E 005°45'0 0.0
2017-Aug-22 01:29N 58°58' E 005°45'0 0.0
2017-Aug-22 00:59N 58°58' E 005°45'0 0.0
2017-Aug-22 00:29N 58°58' E 005°45'0 0.0
2017-Aug-21 23:59N 58°58' E 005°45'0 0.0
2017-Aug-21 23:29N 58°58' E 005°45'0 0.0
2017-Aug-21 22:59N 58°58' E 005°45'0 0.0
2017-Aug-21 22:29N 58°58' E 005°45'0 0.0
2017-Aug-21 21:59N 58°58' E 005°45'0 0.0
2017-Aug-21 21:29N 58°58' E 005°45'0 0.0
2017-Aug-21 20:59N 58°58' E 005°45'0 0.0
2017-Aug-21 20:29N 58°58' E 005°45'0 0.0
2017-Aug-21 19:59N 58°58' E 005°45'0 0.0
2017-Aug-21 19:29N 58°58' E 005°45'0 0.0
2017-Aug-21 18:59N 58°58' E 005°45'0 0.0
2017-Aug-21 18:29N 58°58' E 005°45'0 0.0
2017-Aug-21 17:59N 58°58' E 005°45'0 0.0
2017-Aug-21 17:29N 58°58' E 005°45'0 0.0
2017-Aug-21 16:59N 58°58' E 005°45'0 0.0
2017-Aug-21 16:29N 58°58' E 005°45'0 0.0
2017-Aug-21 15:59N 58°58' E 005°45'0 0.0
2017-Aug-21 15:29N 58°58' E 005°45'0 0.0
2017-Aug-21 14:59N 58°58' E 005°45'0 0.0
2017-Aug-21 14:29N 58°58' E 005°45'0 0.0
2017-Aug-21 13:59N 58°58' E 005°45'0 0.0
2017-Aug-21 13:29N 58°58' E 005°45'0 0.0
2017-Aug-21 12:59N 58°58' E 005°45'0 0.0
2017-Aug-21 12:29N 58°58' E 005°45'0 0.8
2017-Aug-21 12:00N 58°58' E 005°46'4 7.0
2017-Aug-21 11:30N 59°02' E 005°46'4 8.6
2017-Aug-21 11:00N 59°02' E 005°37'5 9.5
2017-Aug-21 10:30N 59°05' E 005°31'5 9.2
2017-Aug-21 10:00N 59°07' E 005°23'5 9.4
2017-Aug-21 09:30N 59°07' E 005°14'5 9.4
2017-Aug-21 09:00N 59°07' E 005°05'5 9.1
2017-Aug-21 08:30N 59°10' E 004°57'5 9.6
2017-Aug-21 08:00N 59°13' E 004°50'40 8.6
2017-Aug-21 03:19N 59°53' E 004°35'3 8.9
2017-Aug-21 03:00N 59°55' E 004°35'4 8.5
2017-Aug-21 02:30N 59°60' E 004°34'4 8.2
2017-Aug-21 01:59N 60°04' E 004°33'4 8.8
2017-Aug-21 01:30N 60°08' E 004°32'5 9.2
2017-Aug-21 01:00N 60°13' E 004°31'5 9.5
2017-Aug-21 00:30N 60°17' E 004°29'5 9.5
2017-Aug-21 00:00N 60°22' E 004°28'4 8.7
2017-Aug-20 23:30N 60°26' E 004°28'4 8.4
2017-Aug-20 23:00N 60°31' E 004°27'4 8.3
2017-Aug-20 22:30N 60°35' E 004°26'4 8.6
2017-Aug-20 22:00N 60°39' E 004°24'4 8.5
2017-Aug-20 21:30N 60°43' E 004°24'4 8.0
2017-Aug-20 21:00N 60°47' E 004°23'4 7.9
2017-Aug-20 20:30N 60°51' E 004°22'4 8.1
2017-Aug-20 19:59N 60°55' E 004°21'4 7.6
2017-Aug-20 19:30N 60°59' E 004°20'4 8.1
2017-Aug-20 19:00N 61°03' E 004°20'4 8.1
2017-Aug-20 18:30N 61°07' E 004°19'4 8.1
2017-Aug-20 18:00N 61°11' E 004°18'29 8.2
2017-Aug-20 14:27N 61°40' E 004°22'4 8.4
2017-Aug-20 14:00N 61°43' E 004°23'4 8.5
2017-Aug-20 13:30N 61°48' E 004°25'5 9.2
2017-Aug-20 13:00N 61°52' E 004°26'5 9.3
2017-Aug-20 12:30N 61°57' E 004°28'5 9.6
2017-Aug-20 12:00N 62°02' E 004°30'5 9.5
2017-Aug-20 11:30N 62°06' E 004°33'5 9.4
2017-Aug-20 11:00N 62°10' E 004°38'5 9.5
2017-Aug-20 10:30N 62°15' E 004°42'5 9.6
2017-Aug-20 10:00N 62°19' E 004°47'5 9.6
2017-Aug-20 09:30N 62°23' E 004°52'5 9.3
2017-Aug-20 08:59N 62°27' E 004°56'384 9.4
2017-Aug-18 16:07N 68°04' E 012°16'1 9.1
2017-Aug-18 16:00N 68°05' E 012°18'4 8.8
2017-Aug-18 15:30N 68°08' E 012°26'4 9.0
2017-Aug-18 15:00N 68°12' E 012°34'5 9.2
2017-Aug-18 14:30N 68°15' E 012°43'9 9.3
2017-Aug-18 13:30N 68°22' E 012°59'5 9.0
2017-Aug-18 13:00N 68°25' E 013°08'5 9.0
2017-Aug-18 12:29N 68°29' E 013°16'5 9.1
2017-Aug-18 11:59N 68°32' E 013°25'4 9.1
2017-Aug-18 11:30N 68°35' E 013°33'5 9.2
2017-Aug-18 11:00N 68°38' E 013°42'5 9.1
2017-Aug-18 10:30N 68°42' E 013°51'4 9.0
2017-Aug-18 10:00N 68°44' E 014°01'4 8.8
2017-Aug-18 09:30N 68°47' E 014°11'4 8.2
2017-Aug-18 09:00N 68°49' E 014°20'4 8.3
2017-Aug-18 08:30N 68°52' E 014°30'4 8.6
2017-Aug-18 08:00N 68°54' E 014°39'5 9.4
2017-Aug-18 07:30N 68°58' E 014°48'4 7.1
2017-Aug-18 07:00N 68°58' E 014°58'4 8.2
2017-Aug-18 06:30N 68°55' E 015°03'0 0.1
2017-Aug-18 05:59N 68°55' E 015°03'0 0.0
2017-Aug-18 05:29N 68°55' E 015°03'0 0.4
2017-Aug-18 05:00N 68°55' E 015°03'0 0.4
2017-Aug-18 04:29N 68°55' E 015°04'0 0.0
2017-Aug-18 03:59N 68°55' E 015°04'0 0.0
2017-Aug-18 03:29N 68°55' E 015°04'0 0.0
2017-Aug-18 02:59N 68°55' E 015°04'0 0.0
2017-Aug-18 02:29N 68°55' E 015°04'0 0.0
2017-Aug-18 01:59N 68°55' E 015°04'0 0.0
2017-Aug-18 01:29N 68°55' E 015°04'0 0.0
2017-Aug-18 00:59N 68°55' E 015°04'0 0.0
2017-Aug-18 00:29N 68°55' E 015°04'0 0.0
2017-Aug-17 23:59N 68°55' E 015°04'0 0.0
2017-Aug-17 23:29N 68°55' E 015°04'0 0.0
2017-Aug-17 22:59N 68°55' E 015°04'0 0.0
2017-Aug-17 22:29N 68°55' E 015°04'0 0.0
2017-Aug-17 21:59N 68°55' E 015°04'0 0.0
2017-Aug-17 21:29N 68°55' E 015°04'0 0.0
2017-Aug-17 20:59N 68°55' E 015°04'0 0.0
2017-Aug-17 20:29N 68°55' E 015°04'0 0.0
2017-Aug-17 19:59N 68°55' E 015°04'0 0.0
2017-Aug-17 18:38N 68°55' E 015°04'0 0.0
2017-Aug-17 18:29N 68°55' E 015°04'0 0.0
2017-Aug-17 17:59N 68°55' E 015°04'0 0.0
2017-Aug-17 17:30N 68°55' E 015°04'2 3.3
2017-Aug-17 17:00N 68°55' E 014°60'510.0
2017-Aug-17 16:30N 69°00' E 014°59'4 8.6
2017-Aug-17 16:00N 69°02' E 015°10'5 9.4
2017-Aug-17 15:30N 69°00' E 015°23'510.2
2017-Aug-17 15:00N 68°55' E 015°23'510.2
2017-Aug-17 14:30N 68°50' E 015°26'510.4
2017-Aug-17 14:00N 68°45' E 015°25'5 9.6
2017-Aug-17 13:30N 68°40' E 015°26'5 9.5
2017-Aug-17 13:01N 68°37' E 015°17'5 9.8
2017-Aug-17 12:30N 68°32' E 015°10'4 8.9
2017-Aug-17 12:01N 68°28' E 015°12'5 9.1
2017-Aug-17 11:30N 68°24' E 015°06'5 9.9
2017-Aug-17 11:00N 68°20' E 014°60'5 9.7
2017-Aug-17 10:30N 68°15' E 014°57'3 6.7
2017-Aug-17 10:00N 68°13' E 015°03'5 9.4
2017-Aug-17 09:30N 68°13' E 015°16'4 9.2
2017-Aug-17 09:00N 68°13' E 015°28'2 3.0
2017-Aug-17 08:30N 68°12' E 015°31'510.5
2017-Aug-17 08:00N 68°09' E 015°20'510.9
2017-Aug-17 07:30N 68°05' E 015°09'510.8
2017-Aug-17 07:00N 68°01' E 014°58'511.1
2017-Aug-17 06:30N 67°58' E 014°47'510.9
2017-Aug-17 06:00N 67°54' E 014°36'510.7
2017-Aug-17 05:30N 67°50' E 014°27'5 9.9
2017-Aug-17 05:01N 67°46' E 014°21'510.5
2017-Aug-17 04:30N 67°40' E 014°22'510.5
2017-Aug-17 04:01N 67°35' E 014°22'510.3
2017-Aug-17 03:31N 67°30' E 014°23'5 9.2
2017-Aug-17 03:01N 67°26' E 014°26'510.0
2017-Aug-17 02:31N 67°21' E 014°24'4 7.0
2017-Aug-17 02:01N 67°17' E 014°23'0 0.1
2017-Aug-17 01:30N 67°17' E 014°23'0 0.0
2017-Aug-17 01:00N 67°17' E 014°23'0 0.0
2017-Aug-17 00:30N 67°17' E 014°23'0 0.0
2017-Aug-17 00:00N 67°17' E 014°23'0 0.0
2017-Aug-16 23:30N 67°17' E 014°23'0 0.0
2017-Aug-16 23:00N 67°17' E 014°23'0 0.0
2017-Aug-16 22:30N 67°17' E 014°23'0 0.0
2017-Aug-16 22:00N 67°17' E 014°23'0 0.0
2017-Aug-16 21:30N 67°17' E 014°23'0 0.0
2017-Aug-16 21:00N 67°17' E 014°23'0 0.0
2017-Aug-16 20:29N 67°17' E 014°23'0 0.0
2017-Aug-16 19:59N 67°17' E 014°23'0 0.0
2017-Aug-16 19:29N 67°17' E 014°23'0 0.0
2017-Aug-16 18:59N 67°17' E 014°23'0 0.0
2017-Aug-16 18:29N 67°17' E 014°23'0 0.0
2017-Aug-16 17:59N 67°17' E 014°23'0 0.0
2017-Aug-16 17:29N 67°17' E 014°23'0 0.0
2017-Aug-16 16:59N 67°17' E 014°23'0 0.0
2017-Aug-16 16:29N 67°17' E 014°23'0 0.0
2017-Aug-16 15:59N 67°17' E 014°23'0 0.0
2017-Aug-16 15:29N 67°17' E 014°23'0 0.0
2017-Aug-16 14:59N 67°17' E 014°23'0 0.0
2017-Aug-16 14:29N 67°17' E 014°23'0 0.0
2017-Aug-16 13:59N 67°17' E 014°23'0 0.0
2017-Aug-16 13:29N 67°17' E 014°23'0 0.0
2017-Aug-16 12:59N 67°17' E 014°23'0 0.0
2017-Aug-16 12:29N 67°17' E 014°23'0 0.0
2017-Aug-16 11:59N 67°17' E 014°23'0 0.0
2017-Aug-16 11:29N 67°17' E 014°23'0 0.0
2017-Aug-16 10:59N 67°17' E 014°23'0 0.0
2017-Aug-16 10:29N 67°17' E 014°23'0 0.0
2017-Aug-16 09:59N 67°17' E 014°23'0 0.0
2017-Aug-16 09:29N 67°17' E 014°23'0 0.0
2017-Aug-16 08:59N 67°17' E 014°23'0 0.0
2017-Aug-16 08:29N 67°17' E 014°23'0 0.0
2017-Aug-16 07:59N 67°17' E 014°23'0 0.0
2017-Aug-16 07:30N 67°17' E 014°23'1 2.4
2017-Aug-16 07:00N 67°19' E 014°23'5 9.4
2017-Aug-16 06:30N 67°23' E 014°26'5 9.2
2017-Aug-16 06:00N 67°28' E 014°24'5 9.0
2017-Aug-16 05:30N 67°32' E 014°22'4 7.2
2017-Aug-16 05:00N 67°36' E 014°22'3 6.1
2017-Aug-16 04:30N 67°39' E 014°22'3 5.9
2017-Aug-16 04:00N 67°42' E 014°21'3 6.2
2017-Aug-16 03:30N 67°45' E 014°21'3 5.7
2017-Aug-16 03:00N 67°48' E 014°22'3 6.7
2017-Aug-16 02:30N 67°50' E 014°27'2 4.8
2017-Aug-16 02:00N 67°52' E 014°31'2 4.1
2017-Aug-16 01:30N 67°54' E 014°35'2 3.8
2017-Aug-16 01:00N 67°55' E 014°39'2 3.6
2017-Aug-16 00:31N 67°56' E 014°42'2 3.5
2017-Aug-16 00:00N 67°58' E 014°46'2 3.5
2017-Aug-15 23:30N 67°59' E 014°49'2 3.4
2017-Aug-15 23:00N 68°00' E 014°52'2 3.6
2017-Aug-15 22:30N 68°01' E 014°56'2 3.8
2017-Aug-15 22:00N 68°02' E 014°60'2 3.8
2017-Aug-15 21:30N 68°03' E 015°04'2 3.8
2017-Aug-15 21:00N 68°05' E 015°08'2 3.4
2017-Aug-15 20:30N 68°06' E 015°11'3 6.7
2017-Aug-15 20:00N 68°08' E 015°18'5 9.9
2017-Aug-15 19:30N 68°11' E 015°28'2 4.1
2017-Aug-15 19:00N 68°13' E 015°24'510.3
2017-Aug-15 18:30N 68°12' E 015°10'5 9.7
2017-Aug-15 18:00N 68°13' E 014°57'510.0
2017-Aug-15 17:29N 68°18' E 014°58'5 9.3
2017-Aug-15 17:00N 68°22' E 015°03'4 8.1
2017-Aug-15 16:30N 68°26' E 015°08'4 8.6
2017-Aug-15 16:00N 68°30' E 015°11'5 9.4
2017-Aug-15 15:30N 68°34' E 015°11'510.0
2017-Aug-15 14:59N 68°38' E 015°22'5 9.7
2017-Aug-15 14:30N 68°43' E 015°26'5 9.9
2017-Aug-15 14:00N 68°48' E 015°26'5 9.8
2017-Aug-15 13:29N 68°52' E 015°25'510.0
2017-Aug-15 13:01N 68°57' E 015°23'4 8.8
2017-Aug-15 12:30N 69°01' E 015°17'5 9.9
2017-Aug-15 11:59N 69°02' E 015°02'4 9.0
2017-Aug-15 11:30N 68°57' E 014°59'3 6.4
2017-Aug-15 11:00N 68°55' E 015°04'0 0.0
2017-Aug-15 10:29N 68°55' E 015°04'0 0.0
2017-Aug-15 09:59N 68°55' E 015°04'0 0.0
2017-Aug-15 09:29N 68°55' E 015°04'0 0.0
2017-Aug-15 08:59N 68°55' E 015°04'0 0.0
2017-Aug-15 08:29N 68°55' E 015°04'0 0.0
2017-Aug-15 07:53N 68°55' E 015°04'0 0.0
2017-Aug-15 07:23N 68°55' E 015°04'0 0.0
2017-Aug-15 06:59N 68°55' E 015°04'0 0.0
2017-Aug-15 06:29N 68°55' E 015°04'0 0.0
2017-Aug-15 05:59N 68°55' E 015°04'0 0.0
2017-Aug-15 05:29N 68°55' E 015°04'0 0.0
2017-Aug-15 04:58N 68°55' E 015°04'0 0.0
2017-Aug-15 04:28N 68°55' E 015°04'0 0.0
2017-Aug-15 03:58N 68°55' E 015°04'0 0.0
2017-Aug-15 03:28N 68°55' E 015°04'0 0.0
2017-Aug-15 02:58N 68°55' E 015°04'0 0.0
2017-Aug-15 02:28N 68°55' E 015°04'0 0.0
2017-Aug-15 01:58N 68°55' E 015°04'0 0.0
2017-Aug-15 01:28N 68°55' E 015°04'0 0.0
2017-Aug-15 00:58N 68°55' E 015°04'0 0.0
2017-Aug-15 00:28N 68°55' E 015°04'0 0.0
2017-Aug-14 23:58N 68°55' E 015°04'0 0.0
2017-Aug-14 23:28N 68°55' E 015°04'0 0.0
2017-Aug-14 22:58N 68°55' E 015°04'0 0.0
2017-Aug-14 22:28N 68°55' E 015°04'0 0.0
2017-Aug-14 21:58N 68°55' E 015°04'0 0.0
2017-Aug-14 21:28N 68°55' E 015°04'0 0.0
2017-Aug-14 20:58N 68°55' E 015°04'0 0.0
2017-Aug-14 20:28N 68°55' E 015°04'0 0.0
2017-Aug-14 19:58N 68°55' E 015°04'0 0.0
2017-Aug-14 19:28N 68°55' E 015°04'0 0.0
2017-Aug-14 18:58N 68°55' E 015°04'0 0.0
2017-Aug-14 18:28N 68°55' E 015°04'0 0.0
2017-Aug-14 17:58N 68°55' E 015°04'0 0.0
2017-Aug-14 17:28N 68°55' E 015°04'0 0.0
2017-Aug-14 16:58N 68°55' E 015°04'0 0.0
2017-Aug-14 16:28N 68°55' E 015°04'0 0.0
2017-Aug-14 15:58N 68°55' E 015°04'0 0.0
2017-Aug-14 15:28N 68°55' E 015°04'0 0.0
2017-Aug-14 13:07N 68°55' E 015°04'0 0.0
2017-Aug-14 12:58N 68°55' E 015°04'0 0.0
2017-Aug-14 12:28N 68°55' E 015°04'0 0.0
2017-Aug-14 11:58N 68°55' E 015°04'0 0.0
2017-Aug-14 11:28N 68°55' E 015°04'0 0.0
2017-Aug-14 10:58N 68°55' E 015°04'0 0.0
2017-Aug-14 10:28N 68°55' E 015°04'0 0.0
2017-Aug-14 09:58N 68°55' E 015°04'0 0.0
2017-Aug-14 09:28N 68°55' E 015°04'0 0.0
2017-Aug-14 08:58N 68°55' E 015°04'0 0.0
2017-Aug-14 08:28N 68°55' E 015°04'0 0.0
2017-Aug-14 07:58N 68°55' E 015°04'0 0.0
2017-Aug-14 07:28N 68°55' E 015°04'0 0.0
2017-Aug-14 06:58N 68°55' E 015°04'0 0.0
2017-Aug-14 06:28N 68°55' E 015°04'0 0.0
2017-Aug-14 05:58N 68°55' E 015°04'0 0.0
2017-Aug-14 05:28N 68°55' E 015°04'0 0.0
2017-Aug-14 04:58N 68°55' E 015°04'0 0.0
2017-Aug-14 04:28N 68°55' E 015°04'0 0.0
2017-Aug-14 03:58N 68°55' E 015°04'0 0.0
2017-Aug-14 03:28N 68°55' E 015°04'  

Dump ship's entire track history